Time;durP1;ratioP1;P1;durP2;ratioP2;P2;SDS_P1;SDS_P2;PMS_P1;PMS_P2;Temp;Humidity;BMP_temperature;BMP_pressure;BME280_temperature;BME280_humidity;BME280_pressure;Samples;Min_cycle;Max_cycle;Signal;HPM_P1;HPM_P2
2023/12/15 00:00:16;;;;;;;3.35;3.15;;;;;;;-2.18;76.98;101090.13;5067966;28;20116;-62
2023/12/15 00:02:41;;;;;;;1.17;1.10;;;;;;;-2.22;77.21;101088.22;5067839;28;20024;-62
2023/12/15 00:05:07;;;;;;;1.05;0.95;;;;;;;-2.15;77.25;101100.47;5067794;28;20049;-61
2023/12/15 00:07:33;;;;;;;1.08;1.08;;;;;;;-2.15;77.28;101090.31;5067720;28;20148;-62
2023/12/15 00:09:58;;;;;;;0.90;0.90;;;;;;;-2.14;77.20;101087.84;5067731;28;20031;-62
2023/12/15 00:12:23;;;;;;;1.05;1.05;;;;;;;-2.09;77.04;101097.41;5067486;28;20413;-61
2023/12/15 00:14:49;;;;;;;1.30;1.23;;;;;;;-2.09;77.10;101087.25;5067378;28;20037;-62
2023/12/15 00:17:14;;;;;;;0.50;0.50;;;;;;;-2.12;77.05;101098.09;5067560;28;20031;-62
2023/12/15 00:19:39;;;;;;;0.70;0.70;;;;;;;-2.13;77.05;101094.72;5049526;28;20051;-62
2023/12/15 00:22:05;;;;;;;1.65;1.55;;;;;;;-2.18;77.21;101095.22;5067511;28;20100;-62
2023/12/15 00:24:30;;;;;;;0.60;0.60;;;;;;;-2.26;77.36;101088.06;5067417;28;20461;-61
2023/12/15 00:26:57;;;;;;;1.48;1.40;;;;;;;-2.22;77.66;101095.88;5049323;28;20020;-63
2023/12/15 00:29:23;;;;;;;1.33;1.17;;;;;;;-2.22;77.63;101101.81;5066926;28;20017;-63
2023/12/15 00:31:48;;;;;;;1.77;1.67;;;;;;;-2.21;77.72;101100.16;5067484;28;20028;-60
2023/12/15 00:34:13;;;;;;;0.60;0.60;;;;;;;-2.24;77.92;101095.78;5067170;28;20029;-62
2023/12/15 00:36:39;;;;;;;0.60;0.60;;;;;;;-2.24;77.74;101095.78;5067212;28;20056;-62
2023/12/15 00:39:04;;;;;;;2.15;2.05;;;;;;;-2.28;77.90;101094.72;5067151;28;20028;-61
2023/12/15 00:41:29;;;;;;;1.17;0.63;;;;;;;-2.25;78.25;101099.09;5066754;28;20027;-61
2023/12/15 00:43:55;;;;;;;0.70;0.70;;;;;;;-2.17;78.04;101097.00;5066934;28;20043;-62
2023/12/15 00:46:20;;;;;;;0.90;0.90;;;;;;;-2.15;78.02;101097.94;5067055;28;20024;-61
2023/12/15 00:48:45;;;;;;;1.05;1.05;;;;;;;-2.13;78.25;101098.91;5066878;28;20036;-62
2023/12/15 00:51:11;;;;;;;1.00;0.90;;;;;;;-2.13;78.06;101094.72;5066920;28;20466;-61
2023/12/15 00:53:36;;;;;;;1.25;1.25;;;;;;;-2.12;78.00;101098.09;5066750;28;20039;-62
2023/12/15 00:56:01;;;;;;;0.80;0.80;;;;;;;-2.10;78.12;101077.84;5066836;28;20025;-62
2023/12/15 00:58:27;;;;;;;1.13;1.10;;;;;;;-2.05;78.01;101091.69;5066806;28;20241;-61
2023/12/15 01:00:52;;;;;;;0.63;0.63;;;;;;;-1.97;77.89;101097.19;5066654;28;20031;-62
2023/12/15 01:03:18;;;;;;;2.60;2.45;;;;;;;-2.02;77.97;101096.94;5065876;28;20040;-62
2023/12/15 01:05:43;;;;;;;0.50;0.50;;;;;;;-2.02;77.90;101108.00;5066731;28;20020;-62
2023/12/15 01:08:08;;;;;;;1.38;1.30;;;;;;;-2.02;78.04;101107.13;5066464;28;20025;-62
2023/12/15 01:10:34;;;;;;;0.70;0.70;;;;;;;-2.05;78.09;101102.75;5048533;28;20419;-62
2023/12/15 01:12:59;;;;;;;0.70;0.70;;;;;;;-2.06;78.17;101098.44;5066362;28;20048;-63
2023/12/15 01:15:24;;;;;;;1.27;1.27;;;;;;;-2.09;78.26;101082.16;5048269;28;20300;-62
2023/12/15 01:17:50;;;;;;;0.55;0.55;;;;;;;-2.12;78.35;101086.28;5066130;28;20032;-63
2023/12/15 01:20:16;;;;;;;1.55;1.45;;;;;;;-2.19;78.55;101083.31;5066537;28;20020;-62
2023/12/15 01:22:42;;;;;;;0.50;0.50;;;;;;;-2.19;78.80;101083.31;5066505;28;20381;-62
2023/12/15 01:25:08;;;;;;;0.80;0.80;;;;;;;-2.38;78.96;101056.88;5066228;28;20021;-61
2023/12/15 01:27:33;;;;;;;1.25;1.15;;;;;;;-2.21;79.32;101082.34;5047990;28;20136;-63
2023/12/15 01:29:59;;;;;;;1.00;1.00;;;;;;;-2.21;79.44;101079.78;5066170;28;20029;-61
2023/12/15 01:32:24;;;;;;;0.63;0.63;;;;;;;-2.15;79.32;101087.75;5048229;28;20543;-61
2023/12/15 01:34:49;;;;;;;1.10;1.10;;;;;;;-2.07;79.28;101083.97;5066024;28;20060;-63
2023/12/15 01:37:14;;;;;;;0.80;0.80;;;;;;;-2.08;79.18;101084.78;5065850;28;20032;-61
2023/12/15 01:39:40;;;;;;;2.15;1.60;;;;;;;-2.02;79.11;101085.09;5066028;28;20025;-62
2023/12/15 01:42:05;;;;;;;2.08;1.42;;;;;;;-2.01;79.10;101068.16;5065602;28;20084;-62
2023/12/15 01:44:31;;;;;;;0.60;0.60;;;;;;;-1.94;79.22;101070.25;5065736;28;20019;-61
2023/12/15 01:46:56;;;;;;;2.92;1.90;;;;;;;-1.90;79.27;101066.19;5065521;28;20076;-62
2023/12/15 01:49:22;;;;;;;2.25;1.88;;;;;;;-1.80;79.42;101075.19;5065640;28;20056;-61
2023/12/15 01:51:47;;;;;;;0.90;0.90;;;;;;;-1.72;79.41;101078.13;5065598;28;20031;-62
2023/12/15 01:54:12;;;;;;;1.08;1.08;;;;;;;-1.70;79.55;101077.44;5065639;28;20017;-62
2023/12/15 01:56:38;;;;;;;1.48;1.38;;;;;;;-1.60;79.50;101081.34;5065247;28;20016;-62
2023/12/15 01:59:03;;;;;;;0.50;0.50;;;;;;;-1.56;79.59;101085.78;5065539;28;20020;-63
2023/12/15 02:01:29;;;;;;;0.80;0.80;;;;;;;-1.53;79.54;101079.97;5064250;28;20025;-62
2023/12/15 02:03:54;;;;;;;1.92;1.23;;;;;;;-1.48;79.76;101087.84;5064493;28;20081;-62
2023/12/15 02:06:20;;;;;;;1.45;1.40;;;;;;;-1.40;79.69;101078.94;5065237;28;20032;-63
2023/12/15 02:08:46;;;;;;;1.00;0.90;;;;;;;-1.32;79.72;101079.31;5065406;28;20436;-62
2023/12/15 02:11:11;;;;;;;0.98;0.98;;;;;;;-1.21;79.76;101083.31;5047143;28;20024;-63
2023/12/15 02:13:36;;;;;;;2.25;1.55;;;;;;;-1.12;79.56;101062.53;5064939;28;20088;-61
2023/12/15 02:16:02;;;;;;;0.63;0.63;;;;;;;-1.10;79.42;101062.59;5064753;28;20041;-61
2023/12/15 02:18:27;;;;;;;0.55;0.55;;;;;;;-1.07;79.38;101063.59;5065074;28;20029;-62
2023/12/15 02:20:53;;;;;;;0.70;0.70;;;;;;;-1.05;79.47;101069.66;5065172;28;20040;-61
2023/12/15 02:23:18;;;;;;;0.98;0.93;;;;;;;-0.98;79.48;101069.97;5065133;28;20093;-62
2023/12/15 02:25:43;;;;;;;2.70;1.95;;;;;;;-0.93;79.43;101071.06;5065122;28;20029;-62
2023/12/15 02:28:09;;;;;;;0.85;0.85;;;;;;;-0.94;79.48;101090.59;5064762;28;20075;-62
2023/12/15 02:30:34;;;;;;;0.98;0.82;;;;;;;-0.95;79.57;101080.31;5064468;28;20361;-62
2023/12/15 02:33:00;;;;;;;0.70;0.70;;;;;;;-0.92;79.49;101089.00;5064672;28;20050;-62
2023/12/15 02:35:25;;;;;;;4.78;1.02;;;;;;;-0.85;79.57;101079.97;5065246;28;20025;-62
2023/12/15 02:37:50;;;;;;;1.52;1.45;;;;;;;-0.80;79.42;101075.97;5046625;28;20020;-62
2023/12/15 02:40:16;;;;;;;2.22;1.55;;;;;;;-0.82;79.57;101079.25;5046696;28;20048;-62
2023/12/15 02:42:41;;;;;;;3.15;1.20;;;;;;;-0.82;79.79;101080.13;5064385;28;20016;-63
2023/12/15 02:45:07;;;;;;;8.57;1.45;;;;;;;-0.84;79.79;101080.84;5064728;28;20025;-61
2023/12/15 02:47:32;;;;;;;1.20;1.20;;;;;;;-0.85;79.82;101079.09;5064848;28;20081;-62
2023/12/15 02:49:58;;;;;;;1.48;1.42;;;;;;;-0.79;79.90;101082.84;5064727;28;20112;-63
2023/12/15 02:52:23;;;;;;;1.38;1.27;;;;;;;-0.72;79.98;101083.13;5064482;28;20028;-62
2023/12/15 02:54:48;;;;;;;2.78;2.58;;;;;;;-0.68;80.31;101080.81;5064707;28;20083;-62
2023/12/15 02:57:14;;;;;;;0.77;0.77;;;;;;;-0.63;79.85;101065.72;5046724;28;20016;-62
2023/12/15 02:59:39;;;;;;;2.05;1.85;;;;;;;-0.63;80.04;101081.03;5064609;28;20025;-62
2023/12/15 03:02:05;;;;;;;1.10;1.05;;;;;;;-0.64;80.24;101085.25;5064812;28;20029;-63
2023/12/15 03:04:30;;;;;;;0.60;0.60;;;;;;;-0.65;80.40;101074.97;5064643;28;20111;-63
2023/12/15 03:06:55;;;;;;;1.67;1.40;;;;;;;-0.57;80.28;101070.22;5064536;28;20033;-62
2023/12/15 03:09:21;;;;;;;0.63;0.63;;;;;;;-0.61;80.51;101070.88;5064614;28;20088;-62
2023/12/15 03:11:46;;;;;;;0.70;0.70;;;;;;;-0.59;80.59;101065.06;5064175;28;20039;-63
2023/12/15 03:14:12;;;;;;;0.50;0.50;;;;;;;-0.56;80.72;101077.09;5064308;28;20037;-63
2023/12/15 03:16:37;;;;;;;0.68;0.68;;;;;;;-0.66;80.67;101052.81;5064518;28;20017;-62
2023/12/15 03:19:02;;;;;;;1.13;1.08;;;;;;;-0.55;80.78;101055.88;5064512;28;20478;-62
2023/12/15 03:21:28;;;;;;;2.10;1.10;;;;;;;-0.46;80.76;101070.75;5064798;28;20040;-62
2023/12/15 03:23:53;;;;;;;0.60;0.60;;;;;;;-0.48;80.86;101064.72;5064185;28;20021;-63
2023/12/15 03:26:19;;;;;;;0.60;0.60;;;;;;;-0.45;80.75;101064.84;5067681;28;20035;-61
2023/12/15 03:28:44;;;;;;;1.52;1.08;;;;;;;-0.45;80.88;101064.84;5068496;28;20083;-63
2023/12/15 03:31:09;;;;;;;0.55;0.55;;;;;;;-0.42;80.69;101059.91;5068207;28;20535;-62
2023/12/15 03:33:35;;;;;;;0.95;0.95;;;;;;;-0.37;81.12;101073.75;5050211;28;20065;-62
2023/12/15 03:36:02;;;;;;;1.10;1.10;;;;;;;-0.33;81.07;101080.72;5068560;28;20021;-62
2023/12/15 03:38:27;;;;;;;0.60;0.60;;;;;;;-0.30;81.05;101068.13;5068156;28;20100;-63
2023/12/15 03:40:53;;;;;;;1.50;1.40;;;;;;;-0.27;81.18;101073.38;5050068;28;20020;-63
2023/12/15 03:43:18;;;;;;;1.85;1.67;;;;;;;-0.18;81.08;101077.16;5068031;28;20491;-62
2023/12/15 03:45:43;;;;;;;1.88;1.73;;;;;;;-0.12;81.05;101085.09;5050001;28;20025;-62
2023/12/15 03:48:09;;;;;;;1.13;0.75;;;;;;;-0.08;81.09;101086.13;5068292;28;20119;-62
2023/12/15 03:50:34;;;;;;;1.80;1.45;;;;;;;-0.06;81.11;101080.28;5067924;28;20029;-62
2023/12/15 03:52:59;;;;;;;0.50;0.50;;;;;;;-0.07;81.04;101078.53;5049697;28;20017;-63
2023/12/15 03:55:25;;;;;;;1.60;1.50;;;;;;;-0.02;81.02;101073.63;5050109;28;20111;-63
2023/12/15 03:57:51;;;;;;;0.75;0.75;;;;;;;0.03;81.13;101086.59;5049694;28;20044;-63
2023/12/15 04:00:17;;;;;;;1.10;1.00;;;;;;;0.03;81.21;101072.19;5067844;28;20124;-63
2023/12/15 04:02:43;;;;;;;1.23;1.13;;;;;;;0.04;81.33;101068.81;5067922;28;20021;-63
2023/12/15 04:05:08;;;;;;;1.15;1.10;;;;;;;0.10;81.20;101071.63;5049766;28;20028;-62
2023/12/15 04:07:34;;;;;;;1.42;0.80;;;;;;;0.10;81.22;101066.53;5067558;28;20024;-62
2023/12/15 04:09:59;;;;;;;1.13;1.13;;;;;;;0.17;81.46;101066.81;5067791;28;20024;-62
2023/12/15 04:12:24;;;;;;;0.98;0.88;;;;;;;0.20;81.41;101066.94;5067463;28;20029;-61
2023/12/15 04:14:50;;;;;;;2.63;2.35;;;;;;;0.23;81.26;101057.75;5067371;28;20052;-62
2023/12/15 04:17:15;;;;;;;0.50;0.50;;;;;;;0.18;81.32;101061.75;5067681;28;20081;-62
2023/12/15 04:19:41;;;;;;;2.70;2.50;;;;;;;0.23;81.62;101067.06;5067235;28;20024;-62
2023/12/15 04:22:06;;;;;;;0.77;0.77;;;;;;;0.22;81.65;101070.44;5067442;28;20036;-63
2023/12/15 04:24:31;;;;;;;1.02;0.98;;;;;;;0.22;81.61;101068.75;5067287;28;20013;-63
2023/12/15 04:26:57;;;;;;;0.80;0.80;;;;;;;0.26;81.70;101062.09;5067222;28;20025;-64
2023/12/15 04:29:22;;;;;;;2.40;1.77;;;;;;;0.23;81.80;101055.19;5067196;28;20048;-64
2023/12/15 04:31:48;;;;;;;1.30;1.20;;;;;;;0.26;82.00;101072.31;5067240;28;20036;-64
2023/12/15 04:34:13;;;;;;;2.00;1.88;;;;;;;0.24;81.88;101059.47;5067056;28;20029;-65
2023/12/15 04:36:39;;;;;;;3.80;1.83;;;;;;;0.26;82.26;101061.25;5066055;28;20027;-64
2023/12/15 04:39:05;;;;;;;1.13;1.13;;;;;;;0.22;82.31;101061.09;5067099;28;20021;-64
2023/12/15 04:41:30;;;;;;;1.15;1.05;;;;;;;0.28;82.32;101059.63;5066939;28;20053;-65
2023/12/15 04:43:56;;;;;;;2.30;1.38;;;;;;;0.28;82.58;101057.94;5067026;28;20307;-64
2023/12/15 04:46:28;;;;;;;1.92;1.63;;;;;;;0.30;82.81;101061.44;5066809;28;20082;-64
2023/12/15 04:48:55;;;;;;;0.90;0.90;;;;;;;0.33;82.97;101053.03;5066932;28;20104;-63
2023/12/15 04:51:20;;;;;;;0.80;0.80;;;;;;;0.32;83.48;101052.16;5066889;28;20460;-63
2023/12/15 04:53:47;;;;;;;1.80;1.13;;;;;;;0.32;83.73;101051.31;5066537;28;20029;-64
2023/12/15 04:56:13;;;;;;;1.65;1.55;;;;;;;0.42;83.37;101048.31;5048923;28;20031;-64
2023/12/15 04:58:38;;;;;;;6.70;1.15;;;;;;;0.45;83.62;101045.91;5066595;28;20080;-63
2023/12/15 05:01:04;;;;;;;7.32;3.05;;;;;;;0.45;83.83;101032.25;5066788;28;20029;-64
2023/12/15 05:03:31;;;;;;;4.25;1.55;;;;;;;0.46;84.04;101031.47;5048801;28;20028;-63
2023/12/15 05:05:56;;;;;;;2.78;2.58;;;;;;;0.58;83.78;101043.88;5066510;28;20119;-64
2023/12/15 05:08:22;;;;;;;0.63;0.63;;;;;;;0.57;83.97;101042.13;5048466;28;20077;-63
2023/12/15 05:10:47;;;;;;;3.42;2.75;;;;;;;0.65;84.03;101048.47;5066619;28;20083;-63
2023/12/15 05:13:12;;;;;;;1.08;1.08;;;;;;;0.74;84.09;101050.50;5066015;28;20093;-64
2023/12/15 05:15:38;;;;;;;11.40;1.60;;;;;;;0.71;84.04;101029.94;5066321;28;20041;-67
2023/12/15 05:18:04;;;;;;;1.30;1.25;;;;;;;0.76;84.34;101025.91;5066293;28;20025;-65
2023/12/15 05:20:29;;;;;;;3.15;2.65;;;;;;;0.81;84.20;101026.09;5066404;28;20622;-66
2023/12/15 05:22:54;;;;;;;3.25;2.95;;;;;;;0.87;84.14;101034.03;5066454;28;20090;-65
2023/12/15 05:25:20;;;;;;;6.47;4.10;;;;;;;0.89;84.34;101040.06;5066281;28;20076;-66
2023/12/15 05:27:45;;;;;;;11.65;2.50;;;;;;;0.91;84.40;101038.44;5047946;28;20032;-66
2023/12/15 05:30:12;;;;;;;3.08;2.80;;;;;;;0.94;84.54;101037.72;5065967;28;20028;-66
2023/12/15 05:32:37;;;;;;;2.70;2.58;;;;;;;1.04;84.37;101046.63;5066122;28;20080;-66
2023/12/15 05:35:04;;;;;;;3.33;1.75;;;;;;;1.08;84.32;101051.06;5065868;28;20088;-67
2023/12/15 05:37:30;;;;;;;5.07;3.40;;;;;;;1.11;84.83;101054.63;5066138;28;20021;-66
2023/12/15 05:39:57;;;;;;;1.83;1.13;;;;;;;1.10;84.90;101050.31;5065784;28;20021;-67
2023/12/15 05:42:23;;;;;;;5.40;2.78;;;;;;;1.20;84.94;101060.91;5047790;28;20029;-67
2023/12/15 05:44:48;;;;;;;2.70;2.50;;;;;;;1.20;85.08;101059.22;5047999;28;20024;-67
2023/12/15 05:47:13;;;;;;;5.90;3.17;;;;;;;1.26;85.22;101071.41;5065751;28;20021;-64
2023/12/15 05:49:39;;;;;;;4.57;3.40;;;;;;;1.27;85.58;101062.91;5047471;28;20056;-63
2023/12/15 05:52:06;;;;;;;4.30;2.35;;;;;;;1.36;85.63;101077.75;5065741;28;20100;-66
2023/12/15 05:54:32;;;;;;;7.65;3.35;;;;;;;1.35;86.34;101076.91;5065494;28;20166;-66
2023/12/15 05:56:57;;;;;;;9.60;4.05;;;;;;;1.39;86.96;101074.47;5065464;28;20025;-66
2023/12/15 05:59:22;;;;;;;2.20;1.88;;;;;;;1.40;87.11;101071.97;5065671;28;20055;-65
2023/12/15 06:01:48;;;;;;;4.53;3.33;;;;;;;1.42;87.66;101065.19;5046413;28;20086;-64
2023/12/15 06:04:13;;;;;;;12.60;2.88;;;;;;;1.46;87.72;101067.09;5046508;28;20505;-65
2023/12/15 06:06:38;;;;;;;5.63;3.35;;;;;;;1.54;88.30;101071.63;5064115;28;20021;-64
2023/12/15 06:09:04;;;;;;;1.08;1.08;;;;;;;1.56;88.69;101070.88;5065466;28;20021;-65
2023/12/15 06:11:29;;;;;;;4.72;1.88;;;;;;;1.59;88.98;101068.44;5065553;28;20027;-66
2023/12/15 06:13:57;;;;;;;1.60;1.33;;;;;;;1.61;89.12;101074.47;5065106;28;20098;-65
2023/12/15 06:16:23;;;;;;;2.35;2.10;;;;;;;1.71;89.22;101091.06;5047535;28;20540;-65
2023/12/15 06:18:48;;;;;;;2.22;2.05;;;;;;;1.73;89.22;101079.22;5047197;28;20044;-65
2023/12/15 06:21:24;;;;;;;1.08;1.02;;;;;;;1.76;89.57;101091.25;5065247;28;20023;-65
2023/12/15 06:23:50;;;;;;;2.33;2.13;;;;;;;1.73;89.89;101092.03;5065104;28;20080;-64
2023/12/15 06:26:20;;;;;;;1.80;1.42;;;;;;;1.83;90.13;101097.50;5047167;28;20051;-66
2023/12/15 06:28:46;;;;;;;19.02;2.28;;;;;;;1.88;89.96;101098.56;5064646;28;20075;-65
2023/12/15 06:31:12;;;;;;;7.05;2.03;;;;;;;1.89;90.08;101087.47;5047403;28;20036;-66
2023/12/15 06:33:37;;;;;;;3.97;3.22;;;;;;;1.90;89.81;101073.84;5047185;28;20024;-66
2023/12/15 06:36:03;;;;;;;8.98;2.40;;;;;;;1.98;89.86;101077.59;5065200;28;20056;-66
2023/12/15 06:38:28;;;;;;;34.80;1.92;;;;;;;1.97;89.87;101072.41;5046918;28;20029;-66
2023/12/15 06:40:54;;;;;;;25.80;1.95;;;;;;;1.97;90.05;101069.84;5064938;28;20021;-67
2023/12/15 06:43:19;;;;;;;2.83;2.33;;;;;;;2.02;89.91;101076.03;5046941;28;20082;-68
2023/12/15 06:45:45;;;;;;;19.58;1.33;;;;;;;1.95;89.99;101062.09;5046866;28;20052;-67
2023/12/15 06:48:10;;;;;;;31.10;2.17;;;;;;;2.01;90.16;101065.72;5046851;28;20025;-67
2023/12/15 06:50:35;;;;;;;16.85;1.35;;;;;;;1.98;89.78;101048.56;5047082;28;20016;-68
2023/12/15 06:53:00;;;;;;;6.35;1.25;;;;;;;2.12;89.89;101076.38;5064619;28;20107;-67
2023/12/15 06:55:26;;;;;;;2.50;2.30;;;;;;;2.12;89.67;101072.13;5047048;28;20094;-68
2023/12/15 06:57:51;;;;;;;0.57;0.57;;;;;;;2.15;89.38;101059.44;5047050;28;20029;-69
2023/12/15 07:00:17;;;;;;;53.88;4.07;;;;;;;2.18;89.80;101074.03;5064000;28;20029;-67
2023/12/15 07:02:42;;;;;;;1.00;1.00;;;;;;;2.13;89.88;101061.03;5064958;28;20033;-68
2023/12/15 07:05:08;;;;;;;1.67;1.58;;;;;;;2.14;90.06;101067.06;5047104;28;20163;-68
2023/12/15 07:07:33;;;;;;;0.60;0.60;;;;;;;2.13;90.47;101073.84;5064842;28;20021;-68
2023/12/15 07:09:59;;;;;;;1.13;1.08;;;;;;;2.14;90.93;101085.84;5064781;28;20021;-68
2023/12/15 07:12:24;;;;;;;5.47;3.08;;;;;;;2.07;91.00;101082.19;5064688;28;20060;-68
2023/12/15 07:14:50;;;;;;;3.10;1.33;;;;;;;2.14;91.31;101090.97;5046351;28;20040;-69
2023/12/15 07:17:15;;;;;;;2.17;2.03;;;;;;;2.14;91.12;101087.56;5046985;28;20029;-68
2023/12/15 07:19:41;;;;;;;0.63;0.63;;;;;;;2.15;91.52;101090.16;5064612;28;20035;-66
2023/12/15 07:22:06;;;;;;;7.15;2.40;;;;;;;2.04;91.69;101073.50;5063331;28;20029;-67
2023/12/15 07:24:32;;;;;;;1.10;1.10;;;;;;;2.17;91.69;101091.06;5063343;28;20474;-68
2023/12/15 07:26:57;;;;;;;1.48;1.38;;;;;;;2.06;91.58;101067.63;5063228;28;20027;-67
2023/12/15 07:29:22;;;;;;;9.85;3.42;;;;;;;2.14;91.53;101088.41;5063538;28;20469;-68
2023/12/15 07:31:49;;;;;;;23.25;2.53;;;;;;;2.17;91.64;101093.63;5063386;28;20052;-68
2023/12/15 07:34:15;;;;;;;4.35;2.72;;;;;;;2.17;91.78;101083.38;5064512;28;20021;-68
2023/12/15 07:36:40;;;;;;;5.57;2.33;;;;;;;2.16;91.64;101099.59;5064415;28;20033;-68
2023/12/15 07:39:06;;;;;;;6.68;2.08;;;;;;;2.15;91.78;101102.97;5064344;28;20037;-67
2023/12/15 07:41:32;;;;;;;2.85;2.55;;;;;;;2.11;91.97;101095.97;5046441;28;20028;-68
2023/12/15 07:43:58;;;;;;;6.07;2.85;;;;;;;2.09;92.24;101092.50;5064605;28;20028;-68
2023/12/15 07:46:24;;;;;;;1.65;1.55;;;;;;;2.18;92.26;101104.78;5064336;28;20025;-67
2023/12/15 07:48:50;;;;;;;1.55;1.45;;;;;;;2.14;92.19;101090.97;5064199;28;20032;-67
2023/12/15 07:51:19;;;;;;;0.75;0.70;;;;;;;2.14;92.34;101095.22;5064666;28;20088;-69
2023/12/15 07:53:48;;;;;;;2.40;2.25;;;;;;;2.17;92.28;101111.56;5064389;28;20025;-69
2023/12/15 07:56:24;;;;;;;1.75;1.35;;;;;;;2.13;92.71;101111.41;5064336;28;20040;-68
2023/12/15 07:58:53;;;;;;;3.90;1.92;;;;;;;2.16;92.68;101114.97;5064173;28;20021;-69
2023/12/15 08:01:20;;;;;;;2.40;2.00;;;;;;;2.16;92.83;101114.97;5064322;28;20048;-69
2023/12/15 08:03:46;;;;;;;0.90;0.80;;;;;;;2.14;93.01;101124.25;5064362;28;20022;-68
2023/12/15 08:06:16;;;;;;;1.52;1.42;;;;;;;2.13;93.22;101114.84;5064252;28;20100;-69
2023/12/15 08:08:42;;;;;;;1.73;0.93;;;;;;;2.16;93.10;101122.66;5064388;28;20025;-69
2023/12/15 08:11:11;;;;;;;2.05;1.92;;;;;;;2.19;93.41;101130.44;5065242;28;20032;-70
2023/12/15 08:13:40;;;;;;;3.97;2.85;;;;;;;2.19;93.58;101134.72;5067436;28;20025;-69
2023/12/15 08:16:07;;;;;;;1.88;1.58;;;;;;;2.13;93.48;101122.53;5066268;28;20102;-69
2023/12/15 08:18:33;;;;;;;1.60;1.33;;;;;;;2.31;93.31;101134.28;5066424;28;20028;-70
2023/12/15 08:20:59;;;;;;;1.92;1.45;;;;;;;2.33;93.52;101137.78;5066518;28;20025;-69
2023/12/15 08:23:25;;;;;;;4.32;1.15;;;;;;;2.41;93.36;101138.06;5066300;28;20441;-69
2023/12/15 08:25:50;;;;;;;1.00;1.00;;;;;;;2.40;93.39;101136.31;5066361;28;20036;-69
2023/12/15 08:28:18;;;;;;;4.47;2.78;;;;;;;2.45;93.40;101145.94;5066168;28;20021;-68
2023/12/15 08:30:44;;;;;;;24.48;2.35;;;;;;;2.48;93.74;101151.16;5066387;28;20132;-68
2023/12/15 08:33:09;;;;;;;12.98;2.35;;;;;;;2.50;93.64;101155.47;5066114;28;20052;-70
2023/12/15 08:35:34;;;;;;;1.25;0.73;;;;;;;2.54;93.73;101159.91;5066385;28;20027;-68
2023/12/15 08:38:00;;;;;;;3.20;1.98;;;;;;;2.58;93.82;101165.22;5066194;28;20094;-67
2023/12/15 08:40:25;;;;;;;29.48;2.15;;;;;;;2.63;93.64;101162.81;5047985;28;20092;-67
2023/12/15 08:42:51;;;;;;;7.78;2.38;;;;;;;2.64;93.42;101156.84;5065910;28;20021;-67
2023/12/15 08:45:17;;;;;;;3.20;2.08;;;;;;;2.61;93.53;101156.75;5048071;28;20051;-67
2023/12/15 08:47:42;;;;;;;2.08;1.88;;;;;;;2.66;93.30;101162.03;5066065;28;20025;-67
2023/12/15 08:50:08;;;;;;;2.97;1.95;;;;;;;2.71;93.46;101166.53;5065819;28;20025;-67
2023/12/15 08:52:33;;;;;;;1.83;1.58;;;;;;;2.72;93.26;101155.44;5065747;28;20473;-67
2023/12/15 08:54:59;;;;;;;2.65;1.52;;;;;;;2.69;93.12;101175.84;5047701;28;20017;-67
2023/12/15 08:57:24;;;;;;;3.03;2.20;;;;;;;2.65;93.66;101171.41;5065681;28;20036;-67
2023/12/15 08:59:49;;;;;;;3.30;3.00;;;;;;;2.71;93.51;101174.22;5065752;28;20017;-68
2023/12/15 09:02:15;;;;;;;6.22;2.25;;;;;;;2.70;93.37;101166.47;5065734;28;20045;-68
2023/12/15 09:04:41;;;;;;;3.47;1.80;;;;;;;2.73;93.54;101164.88;5065542;28;20024;-68
2023/12/15 09:07:09;;;;;;;3.00;1.67;;;;;;;2.63;93.78;101162.81;5065685;28;20025;-68
2023/12/15 09:09:37;;;;;;;4.45;3.80;;;;;;;2.75;94.17;101171.78;5065567;28;20370;-68
2023/12/15 09:12:03;;;;;;;9.73;4.60;;;;;;;2.76;94.01;101170.94;5047298;28;20072;-67
2023/12/15 09:14:30;;;;;;;5.60;1.52;;;;;;;2.76;94.45;101170.94;5017386;28;1367736;-68
2023/12/15 09:16:56;;;;;;;1.88;1.60;;;;;;;2.75;94.58;101179.47;5066590;28;20028;-68
2023/12/15 09:19:22;;;;;;;1.45;1.35;;;;;;;2.80;94.91;101186.50;5047946;28;20041;-68
2023/12/15 09:21:48;;;;;;;1.38;1.27;;;;;;;2.85;94.39;101196.91;5066384;28;20025;-69
2023/12/15 09:24:14;;;;;;;1.52;1.38;;;;;;;2.83;94.91;101196.84;5047505;28;20028;-68
2023/12/15 09:26:42;;;;;;;3.13;1.80;;;;;;;2.91;95.29;101214.19;5066489;28;20017;-70
2023/12/15 09:29:11;;;;;;;1.33;1.23;;;;;;;2.92;95.25;101219.41;5047990;28;20028;-69
2023/12/15 09:31:37;;;;;;;2.30;2.15;;;;;;;2.94;94.99;101215.19;5066390;28;20024;-68
2023/12/15 09:34:03;;;;;;;1.40;1.30;;;;;;;2.96;95.15;101212.69;5066299;28;20043;-69
2023/12/15 09:36:28;;;;;;;7.00;1.15;;;;;;;3.03;94.95;101218.91;5066201;28;20183;-69
2023/12/15 09:38:54;;;;;;;1.15;0.85;;;;;;;3.03;95.15;101217.25;5066004;28;20031;-67
2023/12/15 09:41:20;;;;;;;1.27;0.85;;;;;;;3.03;95.13;101230.06;5066085;28;20042;-70
2023/12/15 09:43:45;;;;;;;7.85;2.03;;;;;;;3.02;95.17;101222.31;5066038;28;20021;-69
2023/12/15 09:46:11;;;;;;;30.35;2.20;;;;;;;3.03;95.28;101224.94;5066032;28;20025;-70
2023/12/15 09:48:38;;;;;;;26.52;2.88;;;;;;;3.04;95.47;101228.34;5065848;28;20084;-69
2023/12/15 09:51:07;;;;;;;1.17;1.15;;;;;;;3.01;95.30;101230.81;5065916;28;20048;-69
2023/12/15 09:53:37;;;;;;;1.45;1.33;;;;;;;3.06;95.24;101225.03;5047827;28;20021;-69
2023/12/15 09:56:04;;;;;;;1.63;1.52;;;;;;;3.07;95.61;101220.75;5065777;28;20465;-69
2023/12/15 09:58:29;;;;;;;7.53;2.03;;;;;;;3.13;95.95;101215.84;5065639;28;20035;-69
2023/12/15 10:00:55;;;;;;;2.17;1.75;;;;;;;3.13;95.97;101210.72;5064634;28;20024;-69
2023/12/15 10:03:20;;;;;;;4.03;1.52;;;;;;;3.18;96.18;101213.47;5046703;28;20354;-69
2023/12/15 10:05:46;;;;;;;2.47;1.77;;;;;;;3.24;96.24;101202.53;5065644;28;20025;-69
2023/12/15 10:08:12;;;;;;;2.55;1.60;;;;;;;3.29;96.55;101204.44;5047155;28;20017;-69
2023/12/15 10:10:37;;;;;;;10.43;1.70;;;;;;;3.28;96.74;101201.81;5046312;28;20028;-69
2023/12/15 10:13:03;;;;;;;1.45;1.27;;;;;;;3.32;97.01;101195.97;5065088;28;20032;-69
2023/12/15 10:15:28;;;;;;;1.48;1.38;;;;;;;3.40;97.23;101199.69;5065458;28;20056;-70
2023/12/15 10:17:54;;;;;;;17.35;2.80;;;;;;;3.46;97.31;101204.16;5065650;28;20017;-69
2023/12/15 10:20:19;;;;;;;1.48;1.38;;;;;;;3.49;97.49;101208.50;5065207;28;20032;-69
2023/12/15 10:22:45;;;;;;;23.20;2.53;;;;;;;3.59;97.24;101203.72;5065274;28;20438;-69
2023/12/15 10:25:21;;;;;;;1.33;1.23;;;;;;;3.63;97.69;101207.28;5065411;28;20043;-69
2023/12/15 10:27:48;;;;;;;1.20;1.10;;;;;;;3.66;97.86;101207.38;5047201;28;20198;-69
2023/12/15 10:30:15;;;;;;;1.08;0.98;;;;;;;3.75;98.13;101201.69;5047309;28;20032;-68
2023/12/15 10:32:41;;;;;;;1.35;1.20;;;;;;;3.83;97.90;101212.19;5065130;28;20024;-69
2023/12/15 10:35:08;;;;;;;1.88;1.65;;;;;;;3.83;98.19;101215.63;5064386;28;20404;-68
2023/12/15 10:37:34;;;;;;;1.40;1.13;;;;;;;3.91;97.99;101213.31;5065116;28;20024;-68
2023/12/15 10:40:01;;;;;;;5.70;1.88;;;;;;;3.95;97.90;101225.44;5064974;28;20017;-68
2023/12/15 10:42:29;;;;;;;2.55;1.23;;;;;;;3.99;98.12;101220.41;5063919;28;20024;-69
2023/12/15 10:44:56;;;;;;;1.65;1.55;;;;;;;3.97;98.17;101228.94;5045646;28;20079;-68
2023/12/15 10:47:23;;;;;;;1.42;1.17;;;;;;;4.00;98.18;101229.84;5063735;28;20031;-67
2023/12/15 10:49:52;;;;;;;5.32;1.40;;;;;;;4.06;98.52;101223.22;5063615;28;20025;-68
2023/12/15 10:52:21;;;;;;;5.78;1.35;;;;;;;4.08;98.25;101225.81;5064401;28;20107;-68
2023/12/15 10:54:50;;;;;;;2.97;1.38;;;;;;;4.14;98.49;101226.00;5046661;28;20035;-69
2023/12/15 10:57:15;;;;;;;6.18;2.05;;;;;;;4.12;98.60;101217.38;5064452;28;20024;-69
2023/12/15 10:59:41;;;;;;;2.08;1.90;;;;;;;4.17;98.65;101204.69;5064694;28;20017;-69
2023/12/15 11:02:11;;;;;;;16.95;3.15;;;;;;;4.21;98.63;101214.22;5065021;28;20029;-69
2023/12/15 11:04:37;;;;;;;3.90;2.08;;;;;;;4.25;98.67;101213.50;5064766;28;20151;-69
2023/12/15 11:07:02;;;;;;;10.10;2.35;;;;;;;4.28;98.84;101221.28;5046536;28;20028;-69
2023/12/15 11:09:32;;;;;;;2.38;1.45;;;;;;;4.34;98.97;101220.63;5064392;28;20025;-70
2023/12/15 11:12:29;;;;;;;13.80;2.42;;;;;;;4.38;98.98;101222.47;5046644;28;20085;-70
2023/12/15 11:15:06;;;;;;;5.35;2.78;;;;;;;4.35;98.87;101204.38;5046556;28;20045;-70
2023/12/15 11:17:33;;;;;;;1.58;1.48;;;;;;;4.44;98.97;101216.66;5064830;28;20021;-69
2023/12/15 11:20:10;;;;;;;1.95;1.73;;;;;;;4.44;99.15;101227.78;5064264;28;20064;-69
2023/12/15 11:22:46;;;;;;;4.00;1.33;;;;;;;4.48;99.00;101221.03;5064665;28;20041;-69